createdAt,value
2019-02-26T00:03:01.835Z,2.23
2019-02-26T00:07:05.981Z,1.87
2019-02-26T00:11:10.834Z,2.27
2019-02-26T00:15:15.142Z,1.83
2019-02-26T00:19:19.392Z,1.97
2019-02-26T00:23:25.332Z,1.97
2019-02-26T00:27:30.532Z,2.00
2019-02-26T00:31:35.504Z,2.30
2019-02-26T00:35:41.524Z,2.10
2019-02-26T00:39:47.328Z,1.97
2019-02-26T00:43:53.498Z,2.20
2019-02-26T00:47:57.901Z,2.37
2019-02-26T00:52:04.006Z,2.20
2019-02-26T00:56:10.330Z,2.10
2019-02-26T01:00:15.643Z,2.20
2019-02-26T01:04:19.880Z,2.10
2019-02-26T01:08:24.122Z,2.50
2019-02-26T01:12:28.316Z,2.23
2019-02-26T01:16:32.550Z,2.00
2019-02-26T01:20:36.742Z,2.13
2019-02-26T01:24:40.971Z,1.93
2019-02-26T01:28:48.253Z,2.13
2019-02-26T01:32:51.175Z,2.20
2019-02-26T01:36:55.373Z,2.03
2019-02-26T01:40:59.932Z,1.90
2019-02-26T01:45:04.634Z,2.10
2019-02-26T01:49:08.870Z,2.23
2019-02-26T01:53:14.495Z,2.17
2019-02-26T01:57:19.039Z,1.83
2019-02-26T02:01:24.015Z,2.20
2019-02-26T02:05:31.278Z,2.10
2019-02-26T02:09:35.375Z,2.33
2019-02-26T02:13:41.285Z,2.13
2019-02-26T02:17:45.902Z,2.37
2019-02-26T02:21:51.594Z,2.40
2019-02-26T02:25:59.782Z,2.40
2019-02-26T02:30:02.263Z,2.33
2019-02-26T02:34:06.476Z,2.50
2019-02-26T02:38:10.655Z,2.10
2019-02-26T02:42:17.058Z,2.30
2019-02-26T02:46:20.862Z,2.17
2019-02-26T02:50:25.462Z,2.13
2019-02-26T02:54:29.642Z,2.07
2019-02-26T02:58:33.854Z,2.37
2019-02-26T03:02:42.762Z,2.33
2019-02-26T03:06:43.979Z,2.00
2019-02-26T03:10:48.338Z,2.00
2019-02-26T03:14:52.557Z,1.93
2019-02-26T03:18:56.777Z,1.93
2019-02-26T03:23:00.993Z,2.20
2019-02-26T03:27:05.179Z,2.00
2019-02-26T03:31:09.408Z,2.33
2019-02-26T03:35:15.929Z,1.80
2019-02-26T03:39:20.200Z,2.33
2019-02-26T03:43:24.549Z,2.00
2019-02-26T03:47:28.780Z,1.80
2019-02-26T03:51:32.966Z,2.07
2019-02-26T03:55:39.154Z,1.77
2019-02-26T03:59:43.883Z,2.17
2019-02-26T04:03:48.058Z,2.03
2019-02-26T04:07:55.532Z,1.63
2019-02-26T04:11:58.813Z,2.10
2019-02-26T04:16:04.604Z,1.90
2019-02-26T04:20:09.968Z,1.97
2019-02-26T04:24:14.171Z,2.33
2019-02-26T04:28:44.816Z,1.83
2019-02-26T04:33:27.662Z,1.77
2019-02-26T04:38:18.068Z,1.90
2019-02-26T04:42:59.351Z,1.57
2019-02-26T04:47:30.809Z,1.83
2019-02-26T04:51:34.326Z,1.60
2019-02-26T04:55:41.468Z,1.80
2019-02-26T04:59:45.537Z,1.90
2019-02-26T05:03:49.861Z,2.00
2019-02-26T05:07:54.130Z,1.93
2019-02-26T05:11:58.337Z,1.67
2019-02-26T05:16:02.551Z,1.87
2019-02-26T05:20:09.718Z,1.90
2019-02-26T05:24:15.062Z,1.70
2019-02-26T05:28:18.795Z,2.00
2019-02-26T05:32:26.530Z,2.00
2019-02-26T05:36:31.102Z,1.90
2019-02-26T05:40:37.446Z,1.70
2019-02-26T05:44:41.132Z,1.83
2019-02-26T05:48:46.363Z,2.17
2019-02-26T05:52:57.535Z,1.50
2019-02-26T05:56:57.256Z,1.73
2019-02-26T06:01:01.458Z,1.70
2019-02-26T06:05:05.911Z,1.53
2019-02-26T06:09:10.169Z,1.80
2019-02-26T06:13:15.725Z,1.70
2019-02-26T06:17:20.070Z,1.70
2019-02-26T06:21:26.089Z,1.43
2019-02-26T06:25:30.559Z,1.40
2019-02-26T06:29:37.373Z,1.70
2019-02-26T06:33:43.008Z,1.90
2019-02-26T06:37:47.077Z,1.73
2019-02-26T06:41:51.341Z,1.30
2019-02-26T06:45:55.600Z,1.37
2019-02-26T06:49:59.830Z,1.47
2019-02-26T06:54:05.418Z,1.30
2019-02-26T06:58:20.617Z,1.67
2019-02-26T07:02:28.306Z,1.43
2019-02-26T07:06:32.716Z,1.23
2019-02-26T07:10:36.828Z,1.47
2019-02-26T07:14:41.060Z,1.37
2019-02-26T07:18:45.290Z,1.37
2019-02-26T07:22:51.572Z,1.40
2019-02-26T07:26:55.436Z,1.27
2019-02-26T07:31:00.478Z,1.30
2019-02-26T07:35:08.618Z,1.50
2019-02-26T07:39:13.538Z,1.37
2019-02-26T07:43:20.065Z,1.37
2019-02-26T07:47:26.531Z,1.43
2019-02-26T07:51:31.605Z,1.27
2019-02-26T07:55:38.334Z,1.40
2019-02-26T07:59:44.951Z,1.00
2019-02-26T08:03:49.220Z,1.40
2019-02-26T08:07:56.528Z,1.30
2019-02-26T08:12:02.010Z,1.20
2019-02-26T08:16:06.566Z,1.80
2019-02-26T08:20:14.605Z,1.50
2019-02-26T08:24:20.363Z,1.70
2019-02-26T08:28:24.901Z,1.27
2019-02-26T08:32:30.536Z,1.17
2019-02-26T08:36:34.833Z,1.53
2019-02-26T08:40:39.128Z,1.30
2019-02-26T08:44:46.263Z,1.40
2019-02-26T08:48:50.812Z,1.30
2019-02-26T08:52:57.936Z,1.40
2019-02-26T08:57:01.208Z,1.50
2019-02-26T09:01:05.629Z,1.40
2019-02-26T09:05:11.847Z,1.40
2019-02-26T09:09:16.100Z,1.00
2019-02-26T09:13:20.350Z,1.47
2019-02-26T09:17:26.807Z,1.57
2019-02-26T09:21:30.498Z,1.50
2019-02-26T09:25:35.090Z,1.67
2019-02-26T09:29:41.633Z,1.60
2019-02-26T09:33:45.559Z,1.43
2019-02-26T09:37:52.613Z,1.70
2019-02-26T09:41:57.574Z,1.60
2019-02-26T09:46:03.862Z,1.70
2019-02-26T09:50:10.362Z,1.60
2019-02-26T09:54:17.622Z,1.50
2019-02-26T09:58:23.381Z,1.50
2019-02-26T10:02:28.763Z,1.70
2019-02-26T10:06:34.597Z,1.33
2019-02-26T10:10:39.778Z,1.57
2019-02-26T10:14:44.175Z,1.23
2019-02-26T10:18:49.988Z,1.83
2019-02-26T10:22:57.138Z,2.17
2019-02-26T10:27:02.999Z,1.87
2019-02-26T10:31:09.509Z,1.77
2019-02-26T10:35:16.575Z,1.30
2019-02-26T10:39:23.199Z,1.83
2019-02-26T10:43:26.985Z,1.47
2019-02-26T10:47:32.751Z,1.60
2019-02-26T10:51:37.483Z,1.70
2019-02-26T10:55:42.160Z,2.13
2019-02-26T10:59:46.606Z,1.60
2019-02-26T11:03:52.854Z,1.83
2019-02-26T11:07:59.822Z,1.90
2019-02-26T11:12:05.211Z,1.87
2019-02-26T11:16:08.879Z,1.80
2019-02-26T11:20:13.407Z,1.90
2019-02-26T11:24:17.660Z,1.70
2019-02-26T11:28:21.878Z,2.20
2019-02-26T11:32:27.889Z,1.90
2019-02-26T11:36:33.512Z,2.00
2019-02-26T11:40:38.151Z,2.33
2019-02-26T11:44:42.425Z,2.37
2019-02-26T11:48:47.600Z,2.17
2019-02-26T11:52:54.808Z,1.90
2019-02-26T11:56:58.566Z,2.17
2019-02-26T12:01:06.274Z,1.60
2019-02-26T12:05:10.782Z,1.80
2019-02-26T12:09:16.161Z,1.60
2019-02-26T12:13:22.382Z,1.70
2019-02-26T12:17:26.475Z,1.80
2019-02-26T12:21:32.371Z,1.43
2019-02-26T12:25:36.615Z,1.90
2019-02-26T12:29:43.675Z,1.70
2019-02-26T12:33:46.769Z,1.50
2019-02-26T12:37:53.890Z,1.60
2019-02-26T12:41:56.911Z,1.40
2019-02-26T12:46:02.131Z,1.60
2019-02-26T12:50:09.767Z,1.20
2019-02-26T12:54:15.728Z,1.20
2019-02-26T12:58:21.325Z,1.63
2019-02-26T13:02:25.979Z,1.30
2019-02-26T13:06:30.208Z,1.30
2019-02-26T13:10:34.425Z,1.50
2019-02-26T13:14:39.016Z,1.40
2019-02-26T13:18:44.694Z,1.90
2019-02-26T13:22:49.336Z,1.47
2019-02-26T13:26:54.482Z,1.60
2019-02-26T13:31:02.341Z,1.30
2019-02-26T13:35:08.253Z,2.13
2019-02-26T13:39:12.540Z,1.60
2019-02-26T13:43:16.929Z,1.80
2019-02-26T13:47:22.047Z,1.50
2019-02-26T13:51:26.296Z,1.90
2019-02-26T13:55:30.528Z,1.60
2019-02-26T13:59:36.440Z,1.60
2019-02-26T14:03:41.905Z,1.67
2019-02-26T14:07:46.736Z,1.70
2019-02-26T14:11:51.266Z,1.57
2019-02-26T14:15:55.724Z,1.40
2019-02-26T14:20:00.243Z,1.40
2019-02-26T14:24:04.472Z,1.60
2019-02-26T14:28:08.847Z,1.80
2019-02-26T14:32:13.143Z,1.60
2019-02-26T14:36:18.031Z,1.77
2019-02-26T14:40:22.261Z,1.70
2019-02-26T14:44:26.489Z,1.80
2019-02-26T14:48:30.917Z,1.40
2019-02-26T14:52:35.169Z,1.27
2019-02-26T14:56:39.541Z,1.60
2019-02-26T15:00:43.733Z,1.67
2019-02-26T15:04:48.271Z,1.47
2019-02-26T15:08:53.528Z,1.53
2019-02-26T15:12:57.724Z,1.73
2019-02-26T15:17:02.278Z,1.73
2019-02-26T15:21:06.573Z,1.70
2019-02-26T15:25:13.901Z,1.83
2019-02-26T15:29:18.155Z,1.57
2019-02-26T15:33:22.370Z,1.70
2019-02-26T15:37:26.602Z,1.77
2019-02-26T15:41:31.149Z,2.00
2019-02-26T15:45:35.374Z,1.93
2019-02-26T15:49:39.824Z,1.30
2019-02-26T15:53:44.048Z,1.50
2019-02-26T15:57:49.823Z,1.80
2019-02-26T16:01:55.522Z,1.97
2019-02-26T16:06:00.086Z,1.80
2019-02-26T16:10:04.965Z,2.07
2019-02-26T16:14:09.505Z,2.00
2019-02-26T16:18:13.759Z,1.50
2019-02-26T16:22:18.053Z,1.83
2019-02-26T16:26:22.278Z,1.83
2019-02-26T16:30:26.495Z,1.53
2019-02-26T16:34:32.026Z,2.00
2019-02-26T16:38:36.678Z,1.90
2019-02-26T16:42:44.385Z,1.57
2019-02-26T16:46:47.044Z,2.00
2019-02-26T16:50:51.283Z,1.60
2019-02-26T16:54:55.622Z,2.43
2019-02-26T16:59:00.628Z,1.57
2019-02-26T17:03:04.990Z,2.17
2019-02-26T17:07:09.201Z,2.50
2019-02-26T17:11:14.008Z,2.30
2019-02-26T17:15:25.643Z,1.60
2019-02-26T17:19:28.791Z,1.80
2019-02-26T17:23:33.093Z,2.00
2019-02-26T17:27:38.952Z,2.30
2019-02-26T17:31:43.558Z,2.30
2019-02-26T17:35:47.767Z,1.87
2019-02-26T17:39:52.121Z,2.07
2019-02-26T17:43:58.765Z,1.87
2019-02-26T17:48:02.511Z,2.00
2019-02-26T17:52:06.747Z,1.87
2019-02-26T17:56:10.992Z,2.37
2019-02-26T18:00:16.943Z,2.00
2019-02-26T18:04:22.942Z,1.80
2019-02-26T18:08:27.530Z,2.43
2019-02-26T18:12:31.968Z,2.67
2019-02-26T18:16:36.406Z,2.50
2019-02-26T18:20:41.037Z,2.23
2019-02-26T18:24:45.327Z,2.13
2019-02-26T18:28:49.577Z,2.60
2019-02-26T18:32:57.404Z,2.13
2019-02-26T18:37:00.141Z,2.03
2019-02-26T18:41:04.462Z,2.33
2019-02-26T18:45:12.580Z,2.37
2019-02-26T18:49:17.142Z,2.33
2019-02-26T18:53:21.378Z,2.50
2019-02-26T18:57:25.679Z,2.50
2019-02-26T19:01:30.813Z,2.30
2019-02-26T19:05:35.696Z,2.70
2019-02-26T19:09:39.950Z,2.53
2019-02-26T19:13:44.345Z,2.57
2019-02-26T19:17:50.317Z,2.93
2019-02-26T19:21:54.742Z,2.70
2019-02-26T19:25:59.246Z,2.90
2019-02-26T19:30:04.658Z,3.03
2019-02-26T19:34:09.584Z,2.47
2019-02-26T19:38:13.835Z,2.87
2019-02-26T19:42:20.988Z,3.00
2019-02-26T19:46:24.222Z,2.80
2019-02-26T19:50:28.522Z,3.30
2019-02-26T19:54:32.967Z,2.93
2019-02-26T19:58:40.803Z,3.10
2019-02-26T20:02:43.607Z,3.40
2019-02-26T20:06:48.043Z,3.10
2019-02-26T20:10:54.075Z,2.70
2019-02-26T20:14:58.322Z,2.60
2019-02-26T20:19:03.593Z,2.93
2019-02-26T20:23:08.110Z,3.57
2019-02-26T20:27:12.726Z,3.53
2019-02-26T20:31:17.043Z,2.70
2019-02-26T20:35:21.796Z,3.23
2019-02-26T20:39:26.045Z,2.87
2019-02-26T20:43:30.504Z,2.60
2019-02-26T20:47:34.692Z,2.60
2019-02-26T20:51:39.481Z,2.67
2019-02-26T20:55:52.291Z,2.40
2019-02-26T20:59:51.967Z,2.90
2019-02-26T21:03:56.222Z,2.93
2019-02-26T21:08:00.437Z,2.23
2019-02-26T21:12:06.518Z,2.63
2019-02-26T21:16:11.563Z,3.07
2019-02-26T21:20:16.160Z,3.00
2019-02-26T21:24:20.677Z,2.80
2019-02-26T21:28:24.874Z,2.60
2019-02-26T21:32:29.149Z,2.83
2019-02-26T21:36:33.615Z,2.90
2019-02-26T21:40:37.962Z,2.50
2019-02-26T21:44:42.418Z,2.60
2019-02-26T21:48:46.662Z,2.90
2019-02-26T21:53:06.306Z,3.23
2019-02-26T21:56:56.943Z,2.30
2019-02-26T22:01:01.287Z,2.77
2019-02-26T22:05:05.934Z,2.80
2019-02-26T22:09:10.466Z,2.80
2019-02-26T22:13:14.721Z,2.50
2019-02-26T22:17:19.020Z,2.67
2019-02-26T22:21:23.243Z,2.43
2019-02-26T22:25:29.253Z,2.60
2019-02-26T22:29:36.169Z,2.90
2019-02-26T22:33:40.710Z,2.87
2019-02-26T22:37:45.446Z,2.47
2019-02-26T22:41:49.705Z,3.03
2019-02-26T22:45:53.970Z,2.77
2019-02-26T22:49:58.181Z,2.67
2019-02-26T22:54:03.204Z,2.63
2019-02-26T22:58:07.532Z,3.40
2019-02-26T23:02:12.162Z,3.17
2019-02-26T23:06:16.800Z,2.97
2019-02-26T23:10:24.525Z,2.73
2019-02-26T23:14:27.385Z,3.17
2019-02-26T23:18:31.904Z,3.10
2019-02-26T23:22:36.187Z,3.20
2019-02-26T23:26:42.532Z,2.83
2019-02-26T23:30:47.457Z,3.00
2019-02-26T23:35:08.626Z,3.03
2019-02-26T23:39:15.359Z,3.13
2019-02-26T23:43:19.554Z,2.93
2019-02-26T23:47:23.777Z,3.20
2019-02-26T23:51:27.998Z,2.97
2019-02-26T23:55:32.198Z,2.90
2019-02-26T23:59:37.712Z,3.23
